KAUW/AUW METAR and TAF weather

Enter ICAO airport designator
Station Type Date Time Source
KAUW METAR 2018/12/13 15:54 UTC NOAA

KAUW 131554Z AUTO 15005KT 5SM BR SCT014 M01/M03 A3000 RMK AO2 SLP177 I1001 T10111028


Station Type Date Time Source
KAUW Decoded METAR 2018/12/13 15:54 UTC NOAA

WAUSAU DOWNTOWN AIRPORT, WI, United States (KAUW) 44-56N 089-37W 362M
Dec 13, 2018 - 10:54 AM EST / 2018.12.13 1554 UTC
Wind: from the SSE (150 degrees) at 6 MPH (5 KT):0
Visibility: 5 mile(s):0
Sky conditions: partly cloudy
Weather: mist
Temperature: 30.0 F (-1.1 C)
Windchill: 23 F (-5 C):1
Dew Point: 27.0 F (-2.8 C)
Relative Humidity: 88%
Pressure (altimeter): 30 in. Hg (1015 hPa)
ob: KAUW 131554Z AUTO 15005KT 5SM BR SCT014 M01/M03 A3000 RMK AO2 SLP177 I1001 T10111028
cycle: 16

Station Type Date Time Source
KAUW TAF 2018/12/13 16:39 UTC NOAA

TAF
AMD KAUW 131535Z 1316/1412 16004KT 1 1/2SM BR OVC004
TEMPO 1316/1318 4SM BR SCT005 OVC011
FM131800 20004KT 5SM BR OVC007
FM140100 27004KT 3SM BR OVC004
FM140600 29004KT 2SM BR BKN006
FM140900 29003KT 1 1/2SM BR BKN008


Example: see airport list